sensor_id;sensor_type;location;lat;lon;timestamp;temperature;humidity
13310;DHT22;6723;48.256;16.402;2023-07-20T00:02:00;23.10;84.10
13310;DHT22;6723;48.256;16.402;2023-07-20T00:04:26;23.20;84.10
13310;DHT22;6723;48.256;16.402;2023-07-20T00:06:51;23.20;84.20
13310;DHT22;6723;48.256;16.402;2023-07-20T00:09:17;23.20;84.20
13310;DHT22;6723;48.256;16.402;2023-07-20T00:11:49;23.20;84.40
13310;DHT22;6723;48.256;16.402;2023-07-20T00:14:19;23.10;84.10
13310;DHT22;6723;48.256;16.402;2023-07-20T00:16:45;23.10;84.10
13310;DHT22;6723;48.256;16.402;2023-07-20T00:19:25;23.10;84.60
13310;DHT22;6723;48.256;16.402;2023-07-20T00:21:52;23.00;84.80
13310;DHT22;6723;48.256;16.402;2023-07-20T00:24:18;23.00;84.60
13310;DHT22;6723;48.256;16.402;2023-07-20T00:26:44;22.90;84.50
13310;DHT22;6723;48.256;16.402;2023-07-20T00:29:10;22.90;85.00
13310;DHT22;6723;48.256;16.402;2023-07-20T00:31:36;22.90;85.30
13310;DHT22;6723;48.256;16.402;2023-07-20T00:34:03;22.90;85.50
13310;DHT22;6723;48.256;16.402;2023-07-20T00:36:29;22.90;86.30
13310;DHT22;6723;48.256;16.402;2023-07-20T00:38:55;22.80;86.40
13310;DHT22;6723;48.256;16.402;2023-07-20T00:41:21;22.70;86.80
13310;DHT22;6723;48.256;16.402;2023-07-20T00:43:47;22.70;87.20
13310;DHT22;6723;48.256;16.402;2023-07-20T00:46:13;22.70;87.10
13310;DHT22;6723;48.256;16.402;2023-07-20T00:48:40;22.60;88.30
13310;DHT22;6723;48.256;16.402;2023-07-20T00:51:07;22.60;87.90
13310;DHT22;6723;48.256;16.402;2023-07-20T00:53:33;22.50;88.40
13310;DHT22;6723;48.256;16.402;2023-07-20T00:55:59;22.50;88.90
13310;DHT22;6723;48.256;16.402;2023-07-20T00:58:25;22.50;89.40
13310;DHT22;6723;48.256;16.402;2023-07-20T01:00:51;22.50;89.80
13310;DHT22;6723;48.256;16.402;2023-07-20T01:03:17;22.40;89.70
13310;DHT22;6723;48.256;16.402;2023-07-20T01:14:25;23.10;86.50
13310;DHT22;6723;48.256;16.402;2023-07-20T01:16:52;23.10;86.90
13310;DHT22;6723;48.256;16.402;2023-07-20T01:19:18;23.20;86.40
13310;DHT22;6723;48.256;16.402;2023-07-20T01:21:59;23.20;86.90
13310;DHT22;6723;48.256;16.402;2023-07-20T01:31:47;23.10;87.60
13310;DHT22;6723;48.256;16.402;2023-07-20T01:33:43;23.00;87.60
13310;DHT22;6723;48.256;16.402;2023-07-20T01:36:10;23.00;87.50
13310;DHT22;6723;48.256;16.402;2023-07-20T01:38:37;23.00;87.40
13310;DHT22;6723;48.256;16.402;2023-07-20T01:41:03;23.00;87.50
13310;DHT22;6723;48.256;16.402;2023-07-20T01:43:29;23.00;87.50
13310;DHT22;6723;48.256;16.402;2023-07-20T01:45:55;23.00;86.60
13310;DHT22;6723;48.256;16.402;2023-07-20T01:48:21;22.90;86.60
13310;DHT22;6723;48.256;16.402;2023-07-20T01:50:46;22.90;86.90
13310;DHT22;6723;48.256;16.402;2023-07-20T01:53:12;22.90;86.70
13310;DHT22;6723;48.256;16.402;2023-07-20T01:55:38;22.90;85.80
13310;DHT22;6723;48.256;16.402;2023-07-20T01:58:04;22.90;85.70
13310;DHT22;6723;48.256;16.402;2023-07-20T02:00:31;22.90;86.30
13310;DHT22;6723;48.256;16.402;2023-07-20T02:02:57;22.80;86.50
13310;DHT22;6723;48.256;16.402;2023-07-20T02:05:23;22.70;86.70
13310;DHT22;6723;48.256;16.402;2023-07-20T02:07:48;22.70;87.10
13310;DHT22;6723;48.256;16.402;2023-07-20T02:10:14;22.60;87.50
13310;DHT22;6723;48.256;16.402;2023-07-20T02:12:40;22.60;87.60
13310;DHT22;6723;48.256;16.402;2023-07-20T02:15:06;22.60;87.70
13310;DHT22;6723;48.256;16.402;2023-07-20T02:17:32;22.60;87.60
13310;DHT22;6723;48.256;16.402;2023-07-20T02:19:57;22.60;88.00
13310;DHT22;6723;48.256;16.402;2023-07-20T02:22:23;22.60;87.90
13310;DHT22;6723;48.256;16.402;2023-07-20T02:24:49;22.60;87.70
13310;DHT22;6723;48.256;16.402;2023-07-20T02:27:16;22.60;87.70
13310;DHT22;6723;48.256;16.402;2023-07-20T02:29:42;22.60;87.60
13310;DHT22;6723;48.256;16.402;2023-07-20T02:32:08;22.60;87.40
13310;DHT22;6723;48.256;16.402;2023-07-20T02:34:35;22.70;87.40
13310;DHT22;6723;48.256;16.402;2023-07-20T02:37:01;22.60;87.30
13310;DHT22;6723;48.256;16.402;2023-07-20T02:39:28;22.60;87.50
13310;DHT22;6723;48.256;16.402;2023-07-20T02:41:54;22.50;87.70
13310;DHT22;6723;48.256;16.402;2023-07-20T02:44:20;22.60;88.10
13310;DHT22;6723;48.256;16.402;2023-07-20T02:46:46;22.50;88.20
13310;DHT22;6723;48.256;16.402;2023-07-20T02:49:12;22.50;88.30
13310;DHT22;6723;48.256;16.402;2023-07-20T02:51:38;22.50;88.70
13310;DHT22;6723;48.256;16.402;2023-07-20T02:54:04;22.50;88.70
13310;DHT22;6723;48.256;16.402;2023-07-20T02:56:29;22.50;88.70
13310;DHT22;6723;48.256;16.402;2023-07-20T02:58:55;22.50;88.70
13310;DHT22;6723;48.256;16.402;2023-07-20T03:01:21;22.50;88.50
13310;DHT22;6723;48.256;16.402;2023-07-20T03:03:46;22.60;88.50
13310;DHT22;6723;48.256;16.402;2023-07-20T03:06:14;22.60;88.70
13310;DHT22;6723;48.256;16.402;2023-07-20T03:08:42;22.60;88.70
13310;DHT22;6723;48.256;16.402;2023-07-20T03:11:10;22.60;88.90
13310;DHT22;6723;48.256;16.402;2023-07-20T03:13:36;22.60;89.20
13310;DHT22;6723;48.256;16.402;2023-07-20T03:16:02;22.60;89.40
13310;DHT22;6723;48.256;16.402;2023-07-20T03:18:28;22.60;89.70
13310;DHT22;6723;48.256;16.402;2023-07-20T03:20:53;22.60;89.80
13310;DHT22;6723;48.256;16.402;2023-07-20T03:23:19;22.50;90.00
13310;DHT22;6723;48.256;16.402;2023-07-20T03:25:45;22.50;90.10
13310;DHT22;6723;48.256;16.402;2023-07-20T03:28:10;22.50;90.10
13310;DHT22;6723;48.256;16.402;2023-07-20T03:30:36;22.50;90.10
13310;DHT22;6723;48.256;16.402;2023-07-20T03:33:02;22.50;90.10
13310;DHT22;6723;48.256;16.402;2023-07-20T03:35:28;22.50;90.00
13310;DHT22;6723;48.256;16.402;2023-07-20T03:37:54;22.50;90.10
13310;DHT22;6723;48.256;16.402;2023-07-20T03:40:20;22.50;90.10
13310;DHT22;6723;48.256;16.402;2023-07-20T03:42:46;22.50;90.10
13310;DHT22;6723;48.256;16.402;2023-07-20T03:45:11;22.50;90.20
13310;DHT22;6723;48.256;16.402;2023-07-20T03:47:37;22.50;90.10
13310;DHT22;6723;48.256;16.402;2023-07-20T03:50:03;22.50;90.10
13310;DHT22;6723;48.256;16.402;2023-07-20T03:52:31;22.60;90.10
13310;DHT22;6723;48.256;16.402;2023-07-20T03:54:56;22.60;90.00
13310;DHT22;6723;48.256;16.402;2023-07-20T03:57:22;22.60;89.80
13310;DHT22;6723;48.256;16.402;2023-07-20T03:59:48;22.70;89.90
13310;DHT22;6723;48.256;16.402;2023-07-20T04:02:14;22.70;89.60
13310;DHT22;6723;48.256;16.402;2023-07-20T04:04:40;22.80;89.70
13310;DHT22;6723;48.256;16.402;2023-07-20T04:07:06;22.70;89.30
13310;DHT22;6723;48.256;16.402;2023-07-20T04:09:33;22.80;89.40
13310;DHT22;6723;48.256;16.402;2023-07-20T04:11:58;22.90;89.50
13310;DHT22;6723;48.256;16.402;2023-07-20T04:14:25;22.90;89.40
13310;DHT22;6723;48.256;16.402;2023-07-20T04:17:13;23.00;90.00
13310;DHT22;6723;48.256;16.402;2023-07-20T04:19:38;23.00;89.90
13310;DHT22;6723;48.256;16.402;2023-07-20T04:22:04;23.00;90.00
13310;DHT22;6723;48.256;16.402;2023-07-20T04:24:30;23.10;90.00
13310;DHT22;6723;48.256;16.402;2023-07-20T04:26:56;23.00;89.70
13310;DHT22;6723;48.256;16.402;2023-07-20T04:29:21;23.00;89.70
13310;DHT22;6723;48.256;16.402;2023-07-20T04:31:47;23.00;89.80
13310;DHT22;6723;48.256;16.402;2023-07-20T04:34:13;23.00;89.90
13310;DHT22;6723;48.256;16.402;2023-07-20T04:36:38;22.90;90.00
13310;DHT22;6723;48.256;16.402;2023-07-20T04:39:04;23.10;90.00
13310;DHT22;6723;48.256;16.402;2023-07-20T04:41:31;23.10;89.90
13310;DHT22;6723;48.256;16.402;2023-07-20T04:43:56;23.00;89.30
13310;DHT22;6723;48.256;16.402;2023-07-20T04:46:22;23.10;89.80
13310;DHT22;6723;48.256;16.402;2023-07-20T04:48:48;23.10;89.90
13310;DHT22;6723;48.256;16.402;2023-07-20T04:51:14;23.10;89.60
13310;DHT22;6723;48.256;16.402;2023-07-20T04:53:39;23.00;89.60
13310;DHT22;6723;48.256;16.402;2023-07-20T04:56:05;23.10;90.00
13310;DHT22;6723;48.256;16.402;2023-07-20T04:58:31;23.00;90.10
13310;DHT22;6723;48.256;16.402;2023-07-20T05:00:56;23.20;90.10
13310;DHT22;6723;48.256;16.402;2023-07-20T05:03:22;23.20;89.80
13310;DHT22;6723;48.256;16.402;2023-07-20T05:05:48;23.40;89.90
13310;DHT22;6723;48.256;16.402;2023-07-20T05:08:14;23.60;89.80
13310;DHT22;6723;48.256;16.402;2023-07-20T05:10:39;23.60;89.20
13310;DHT22;6723;48.256;16.402;2023-07-20T05:13:05;23.70;89.10
13310;DHT22;6723;48.256;16.402;2023-07-20T05:15:33;23.80;89.50
13310;DHT22;6723;48.256;16.402;2023-07-20T05:18:00;23.70;89.40
13310;DHT22;6723;48.256;16.402;2023-07-20T05:20:26;23.80;89.50
13310;DHT22;6723;48.256;16.402;2023-07-20T05:22:52;23.90;89.10
13310;DHT22;6723;48.256;16.402;2023-07-20T05:25:18;24.00;89.10
13310;DHT22;6723;48.256;16.402;2023-07-20T05:27:45;23.80;89.20
13310;DHT22;6723;48.256;16.402;2023-07-20T05:30:12;23.70;89.60
13310;DHT22;6723;48.256;16.402;2023-07-20T05:32:37;23.70;89.90
13310;DHT22;6723;48.256;16.402;2023-07-20T05:35:03;23.80;90.10
13310;DHT22;6723;48.256;16.402;2023-07-20T05:37:30;23.80;90.10
13310;DHT22;6723;48.256;16.402;2023-07-20T05:39:55;23.90;90.10
13310;DHT22;6723;48.256;16.402;2023-07-20T05:42:22;23.90;90.10
13310;DHT22;6723;48.256;16.402;2023-07-20T05:44:47;24.20;90.00
13310;DHT22;6723;48.256;16.402;2023-07-20T05:47:15;24.40;89.20
13310;DHT22;6723;48.256;16.402;2023-07-20T05:49:40;24.50;89.40
13310;DHT22;6723;48.256;16.402;2023-07-20T05:52:06;24.60;89.30
13310;DHT22;6723;48.256;16.402;2023-07-20T05:54:32;24.60;89.30
13310;DHT22;6723;48.256;16.402;2023-07-20T05:56:58;24.60;89.60
13310;DHT22;6723;48.256;16.402;2023-07-20T05:59:24;24.60;89.10
13310;DHT22;6723;48.256;16.402;2023-07-20T06:01:50;24.50;89.00
13310;DHT22;6723;48.256;16.402;2023-07-20T06:04:16;24.60;89.50
13310;DHT22;6723;48.256;16.402;2023-07-20T06:06:42;24.70;89.30
13310;DHT22;6723;48.256;16.402;2023-07-20T06:09:08;24.90;89.70
13310;DHT22;6723;48.256;16.402;2023-07-20T06:11:38;24.90;88.90
13310;DHT22;6723;48.256;16.402;2023-07-20T06:14:04;25.10;89.20
13310;DHT22;6723;48.256;16.402;2023-07-20T06:16:30;25.30;89.00
13310;DHT22;6723;48.256;16.402;2023-07-20T06:18:56;25.30;88.40
13310;DHT22;6723;48.256;16.402;2023-07-20T06:21:22;25.40;88.40
13310;DHT22;6723;48.256;16.402;2023-07-20T06:23:48;25.50;88.20
13310;DHT22;6723;48.256;16.402;2023-07-20T06:26:13;25.50;88.10
13310;DHT22;6723;48.256;16.402;2023-07-20T06:28:39;25.60;87.50
13310;DHT22;6723;48.256;16.402;2023-07-20T06:31:05;25.50;87.00
13310;DHT22;6723;48.256;16.402;2023-07-20T06:33:31;25.60;85.80
13310;DHT22;6723;48.256;16.402;2023-07-20T06:35:58;25.80;85.80
13310;DHT22;6723;48.256;16.402;2023-07-20T06:38:24;26.00;84.80
13310;DHT22;6723;48.256;16.402;2023-07-20T06:40:50;26.00;83.80
13310;DHT22;6723;48.256;16.402;2023-07-20T06:43:16;26.20;83.20
13310;DHT22;6723;48.256;16.402;2023-07-20T06:45:42;26.00;82.80
13310;DHT22;6723;48.256;16.402;2023-07-20T06:48:08;26.10;83.20
13310;DHT22;6723;48.256;16.402;2023-07-20T06:50:33;26.30;82.80
13310;DHT22;6723;48.256;16.402;2023-07-20T06:52:59;26.20;82.80
13310;DHT22;6723;48.256;16.402;2023-07-20T06:55:26;26.40;82.30
13310;DHT22;6723;48.256;16.402;2023-07-20T06:57:52;26.40;82.30
13310;DHT22;6723;48.256;16.402;2023-07-20T07:00:18;26.50;81.50
13310;DHT22;6723;48.256;16.402;2023-07-20T07:02:43;26.50;80.90
13310;DHT22;6723;48.256;16.402;2023-07-20T07:05:09;26.60;80.30
13310;DHT22;6723;48.256;16.402;2023-07-20T07:07:35;26.90;80.50
13310;DHT22;6723;48.256;16.402;2023-07-20T07:10:02;27.10;80.10
13310;DHT22;6723;48.256;16.402;2023-07-20T07:12:30;27.50;79.00
13310;DHT22;6723;48.256;16.402;2023-07-20T07:14:56;27.70;77.90
13310;DHT22;6723;48.256;16.402;2023-07-20T07:17:22;28.00;77.70
13310;DHT22;6723;48.256;16.402;2023-07-20T07:19:48;27.70;76.30
13310;DHT22;6723;48.256;16.402;2023-07-20T07:22:14;27.60;76.30
13310;DHT22;6723;48.256;16.402;2023-07-20T07:24:40;28.10;76.40
13310;DHT22;6723;48.256;16.402;2023-07-20T07:27:08;28.80;75.80
13310;DHT22;6723;48.256;16.402;2023-07-20T07:29:34;29.80;74.80
13310;DHT22;6723;48.256;16.402;2023-07-20T07:32:01;29.50;72.80
13310;DHT22;6723;48.256;16.402;2023-07-20T07:34:27;29.80;72.30
13310;DHT22;6723;48.256;16.402;2023-07-20T07:36:53;29.90;72.00
13310;DHT22;6723;48.256;16.402;2023-07-20T07:39:19;30.10;71.50
13310;DHT22;6723;48.256;16.402;2023-07-20T07:41:45;30.90;70.70
13310;DHT22;6723;48.256;16.402;2023-07-20T07:44:11;31.90;69.60
13310;DHT22;6723;48.256;16.402;2023-07-20T07:46:37;32.70;67.40
13310;DHT22;6723;48.256;16.402;2023-07-20T07:49:03;33.60;66.40
13310;DHT22;6723;48.256;16.402;2023-07-20T07:51:29;34.30;65.50
13310;DHT22;6723;48.256;16.402;2023-07-20T07:53:55;34.10;64.60
13310;DHT22;6723;48.256;16.402;2023-07-20T07:56:21;34.80;63.70
13310;DHT22;6723;48.256;16.402;2023-07-20T07:58:50;35.10;62.60
13310;DHT22;6723;48.256;16.402;2023-07-20T08:01:17;35.50;62.10
13310;DHT22;6723;48.256;16.402;2023-07-20T08:03:46;35.90;61.80
13310;DHT22;6723;48.256;16.402;2023-07-20T08:06:16;35.80;61.30
13310;DHT22;6723;48.256;16.402;2023-07-20T08:08:42;36.10;60.80
13310;DHT22;6723;48.256;16.402;2023-07-20T08:11:10;35.70;61.20
13310;DHT22;6723;48.256;16.402;2023-07-20T08:13:36;36.00;61.40
13310;DHT22;6723;48.256;16.402;2023-07-20T08:16:02;35.90;59.20
13310;DHT22;6723;48.256;16.402;2023-07-20T08:18:29;36.00;60.60
13310;DHT22;6723;48.256;16.402;2023-07-20T08:20:55;35.60;60.70
13310;DHT22;6723;48.256;16.402;2023-07-20T08:23:20;35.80;60.50
13310;DHT22;6723;48.256;16.402;2023-07-20T08:25:46;36.30;59.90
13310;DHT22;6723;48.256;16.402;2023-07-20T08:28:16;36.30;59.60
13310;DHT22;6723;48.256;16.402;2023-07-20T08:30:48;36.40;58.70
13310;DHT22;6723;48.256;16.402;2023-07-20T08:33:16;35.80;59.50
13310;DHT22;6723;48.256;16.402;2023-07-20T08:35:43;35.00;60.90
13310;DHT22;6723;48.256;16.402;2023-07-20T08:38:09;33.40;61.30
13310;DHT22;6723;48.256;16.402;2023-07-20T08:40:43;34.60;62.20
13310;DHT22;6723;48.256;16.402;2023-07-20T08:43:14;33.90;61.60
13310;DHT22;6723;48.256;16.402;2023-07-20T08:45:42;32.60;63.70
13310;DHT22;6723;48.256;16.402;2023-07-20T08:48:11;31.80;64.90
13310;DHT22;6723;48.256;16.402;2023-07-20T08:50:38;31.30;65.70
13310;DHT22;6723;48.256;16.402;2023-07-20T08:53:05;30.50;67.30
13310;DHT22;6723;48.256;16.402;2023-07-20T08:55:31;29.30;68.90
13310;DHT22;6723;48.256;16.402;2023-07-20T08:58:00;28.90;72.30
13310;DHT22;6723;48.256;16.402;2023-07-20T09:00:26;28.40;77.20
13310;DHT22;6723;48.256;16.402;2023-07-20T09:02:55;28.10;87.10
13310;DHT22;6723;48.256;16.402;2023-07-20T09:05:23;27.10;91.70
13310;DHT22;6723;48.256;16.402;2023-07-20T09:07:51;26.50;92.00
13310;DHT22;6723;48.256;16.402;2023-07-20T09:10:17;26.80;93.60
13310;DHT22;6723;48.256;16.402;2023-07-20T09:12:43;27.40;94.40
13310;DHT22;6723;48.256;16.402;2023-07-20T09:15:10;27.90;93.40
13310;DHT22;6723;48.256;16.402;2023-07-20T09:17:37;29.20;91.60
13310;DHT22;6723;48.256;16.402;2023-07-20T09:20:09;29.30;90.80
13310;DHT22;6723;48.256;16.402;2023-07-20T09:22:37;29.40;90.80
13310;DHT22;6723;48.256;16.402;2023-07-20T09:25:09;29.10;87.50
13310;DHT22;6723;48.256;16.402;2023-07-20T09:27:40;28.50;86.10
13310;DHT22;6723;48.256;16.402;2023-07-20T09:30:07;28.20;89.10
13310;DHT22;6723;48.256;16.402;2023-07-20T09:32:44;27.80;89.00
13310;DHT22;6723;48.256;16.402;2023-07-20T09:35:14;27.30;90.00
13310;DHT22;6723;48.256;16.402;2023-07-20T09:38:07;26.70;90.90
13310;DHT22;6723;48.256;16.402;2023-07-20T09:40:38;26.50;91.50
13310;DHT22;6723;48.256;16.402;2023-07-20T09:43:08;26.40;92.10
13310;DHT22;6723;48.256;16.402;2023-07-20T09:45:35;26.30;91.70
13310;DHT22;6723;48.256;16.402;2023-07-20T09:48:06;26.40;92.00
13310;DHT22;6723;48.256;16.402;2023-07-20T09:50:33;26.60;91.40
13310;DHT22;6723;48.256;16.402;2023-07-20T09:53:01;26.60;91.40
13310;DHT22;6723;48.256;16.402;2023-07-20T09:55:29;27.20;91.20
13310;DHT22;6723;48.256;16.402;2023-07-20T09:57:56;27.20;90.10
13310;DHT22;6723;48.256;16.402;2023-07-20T10:00:22;27.40;88.60
13310;DHT22;6723;48.256;16.402;2023-07-20T10:02:52;27.70;88.00
13310;DHT22;6723;48.256;16.402;2023-07-20T10:05:18;28.20;85.50
13310;DHT22;6723;48.256;16.402;2023-07-20T10:07:47;29.20;84.60
13310;DHT22;6723;48.256;16.402;2023-07-20T10:10:18;29.70;81.20
13310;DHT22;6723;48.256;16.402;2023-07-20T10:12:48;30.20;81.80
13310;DHT22;6723;48.256;16.402;2023-07-20T10:15:33;30.70;79.30
13310;DHT22;6723;48.256;16.402;2023-07-20T10:20:43;32.00;78.20
13310;DHT22;6723;48.256;16.402;2023-07-20T10:23:10;32.30;73.90
13310;DHT22;6723;48.256;16.402;2023-07-20T10:25:37;31.90;73.50
13310;DHT22;6723;48.256;16.402;2023-07-20T10:28:05;31.60;73.40
13310;DHT22;6723;48.256;16.402;2023-07-20T10:30:33;31.30;73.00
13310;DHT22;6723;48.256;16.402;2023-07-20T10:33:01;31.00;73.70
13310;DHT22;6723;48.256;16.402;2023-07-20T10:35:28;30.80;75.00
13310;DHT22;6723;48.256;16.402;2023-07-20T10:38:01;30.40;73.50
13310;DHT22;6723;48.256;16.402;2023-07-20T10:40:29;29.80;73.10
13310;DHT22;6723;48.256;16.402;2023-07-20T10:43:06;30.00;73.00
13310;DHT22;6723;48.256;16.402;2023-07-20T10:45:57;29.90;74.00
13310;DHT22;6723;48.256;16.402;2023-07-20T10:48:24;29.90;72.50
13310;DHT22;6723;48.256;16.402;2023-07-20T10:51:14;29.40;73.00
13310;DHT22;6723;48.256;16.402;2023-07-20T10:53:45;29.30;73.50
13310;DHT22;6723;48.256;16.402;2023-07-20T10:56:19;30.10;74.80
13310;DHT22;6723;48.256;16.402;2023-07-20T10:58:45;31.30;74.00
13310;DHT22;6723;48.256;16.402;2023-07-20T11:01:15;31.10;69.10
13310;DHT22;6723;48.256;16.402;2023-07-20T11:03:41;31.00;68.90
13310;DHT22;6723;48.256;16.402;2023-07-20T11:09:08;31.40;68.80
13310;DHT22;6723;48.256;16.402;2023-07-20T11:11:43;31.10;66.20
13310;DHT22;6723;48.256;16.402;2023-07-20T11:14:19;30.90;65.60
13310;DHT22;6723;48.256;16.402;2023-07-20T11:16:47;31.00;64.90
13310;DHT22;6723;48.256;16.402;2023-07-20T11:19:21;30.90;64.70
13310;DHT22;6723;48.256;16.402;2023-07-20T11:21:54;30.70;65.50
13310;DHT22;6723;48.256;16.402;2023-07-20T11:24:21;31.20;65.70
13310;DHT22;6723;48.256;16.402;2023-07-20T11:26:52;31.00;64.40
13310;DHT22;6723;48.256;16.402;2023-07-20T11:29:19;31.10;63.90
13310;DHT22;6723;48.256;16.402;2023-07-20T11:31:47;30.70;64.10
13310;DHT22;6723;48.256;16.402;2023-07-20T11:34:26;30.80;64.00
13310;DHT22;6723;48.256;16.402;2023-07-20T11:36:53;31.10;64.00
13310;DHT22;6723;48.256;16.402;2023-07-20T11:39:21;30.90;62.90
13310;DHT22;6723;48.256;16.402;2023-07-20T11:41:49;30.80;62.60
13310;DHT22;6723;48.256;16.402;2023-07-20T11:44:19;30.50;63.80
13310;DHT22;6723;48.256;16.402;2023-07-20T11:47:09;30.00;63.70
13310;DHT22;6723;48.256;16.402;2023-07-20T11:49:36;30.30;63.80
13310;DHT22;6723;48.256;16.402;2023-07-20T11:52:07;30.60;64.30
13310;DHT22;6723;48.256;16.402;2023-07-20T11:54:35;30.80;63.60
13310;DHT22;6723;48.256;16.402;2023-07-20T11:57:04;31.30;63.50
13310;DHT22;6723;48.256;16.402;2023-07-20T11:59:33;31.10;62.60
13310;DHT22;6723;48.256;16.402;2023-07-20T12:02:03;30.80;63.20
13310;DHT22;6723;48.256;16.402;2023-07-20T12:04:31;30.30;63.80
13310;DHT22;6723;48.256;16.402;2023-07-20T12:06:56;30.00;64.60
13310;DHT22;6723;48.256;16.402;2023-07-20T12:09:22;30.00;66.10
13310;DHT22;6723;48.256;16.402;2023-07-20T12:11:49;29.90;65.60
13310;DHT22;6723;48.256;16.402;2023-07-20T12:14:16;29.90;65.70
13310;DHT22;6723;48.256;16.402;2023-07-20T12:16:42;29.90;65.90
13310;DHT22;6723;48.256;16.402;2023-07-20T12:19:09;29.90;65.80
13310;DHT22;6723;48.256;16.402;2023-07-20T12:21:36;30.10;66.30
13310;DHT22;6723;48.256;16.402;2023-07-20T12:24:04;30.30;64.50
13310;DHT22;6723;48.256;16.402;2023-07-20T12:26:31;30.40;65.40
13310;DHT22;6723;48.256;16.402;2023-07-20T12:28:57;30.50;65.10
13310;DHT22;6723;48.256;16.402;2023-07-20T12:31:24;30.90;64.50
13310;DHT22;6723;48.256;16.402;2023-07-20T12:33:51;30.50;63.90
13310;DHT22;6723;48.256;16.402;2023-07-20T12:36:18;29.90;63.60
13310;DHT22;6723;48.256;16.402;2023-07-20T12:38:44;30.20;62.80
13310;DHT22;6723;48.256;16.402;2023-07-20T12:41:12;30.30;63.80
13310;DHT22;6723;48.256;16.402;2023-07-20T12:43:41;30.30;64.40
13310;DHT22;6723;48.256;16.402;2023-07-20T12:46:08;30.70;63.30
13310;DHT22;6723;48.256;16.402;2023-07-20T12:48:42;31.00;61.30
13310;DHT22;6723;48.256;16.402;2023-07-20T12:51:09;30.60;61.40
13310;DHT22;6723;48.256;16.402;2023-07-20T12:53:35;30.80;61.50
13310;DHT22;6723;48.256;16.402;2023-07-20T12:56:02;30.70;61.10
13310;DHT22;6723;48.256;16.402;2023-07-20T12:58:28;30.70;61.10
13310;DHT22;6723;48.256;16.402;2023-07-20T13:00:54;30.80;60.90
13310;DHT22;6723;48.256;16.402;2023-07-20T13:03:20;30.70;61.00
13310;DHT22;6723;48.256;16.402;2023-07-20T13:05:46;30.80;60.20
13310;DHT22;6723;48.256;16.402;2023-07-20T13:08:13;30.80;60.20
13310;DHT22;6723;48.256;16.402;2023-07-20T13:10:39;30.70;60.60
13310;DHT22;6723;48.256;16.402;2023-07-20T13:13:05;30.30;60.30
13310;DHT22;6723;48.256;16.402;2023-07-20T13:15:32;30.40;60.50
13310;DHT22;6723;48.256;16.402;2023-07-20T13:17:59;30.90;60.20
13310;DHT22;6723;48.256;16.402;2023-07-20T13:20:26;30.80;60.50
13310;DHT22;6723;48.256;16.402;2023-07-20T13:22:53;30.80;60.80
13310;DHT22;6723;48.256;16.402;2023-07-20T13:25:19;30.90;59.90
13310;DHT22;6723;48.256;16.402;2023-07-20T13:27:45;31.20;59.20
13310;DHT22;6723;48.256;16.402;2023-07-20T13:30:12;30.70;59.70
13310;DHT22;6723;48.256;16.402;2023-07-20T13:32:43;30.80;59.80
13310;DHT22;6723;48.256;16.402;2023-07-20T13:35:13;31.30;60.10
13310;DHT22;6723;48.256;16.402;2023-07-20T13:37:39;31.10;61.50
13310;DHT22;6723;48.256;16.402;2023-07-20T13:40:08;31.20;62.20
13310;DHT22;6723;48.256;16.402;2023-07-20T13:42:38;31.20;62.10
13310;DHT22;6723;48.256;16.402;2023-07-20T13:45:04;31.00;62.80
13310;DHT22;6723;48.256;16.402;2023-07-20T13:47:30;31.00;62.60
13310;DHT22;6723;48.256;16.402;2023-07-20T13:49:56;30.70;63.10
13310;DHT22;6723;48.256;16.402;2023-07-20T13:52:22;30.70;63.30
13310;DHT22;6723;48.256;16.402;2023-07-20T13:54:48;30.30;63.70
13310;DHT22;6723;48.256;16.402;2023-07-20T13:57:14;30.10;64.50
13310;DHT22;6723;48.256;16.402;2023-07-20T13:59:41;30.00;64.60
13310;DHT22;6723;48.256;16.402;2023-07-20T14:02:07;30.00;64.80
13310;DHT22;6723;48.256;16.402;2023-07-20T14:04:33;30.00;65.40
13310;DHT22;6723;48.256;16.402;2023-07-20T14:06:59;30.10;65.10
13310;DHT22;6723;48.256;16.402;2023-07-20T14:09:24;30.00;64.50
13310;DHT22;6723;48.256;16.402;2023-07-20T14:11:50;29.60;65.00
13310;DHT22;6723;48.256;16.402;2023-07-20T14:14:16;30.00;65.50
13310;DHT22;6723;48.256;16.402;2023-07-20T14:16:41;30.30;64.60
13310;DHT22;6723;48.256;16.402;2023-07-20T14:19:07;30.30;65.00
13310;DHT22;6723;48.256;16.402;2023-07-20T14:21:33;30.30;64.90
13310;DHT22;6723;48.256;16.402;2023-07-20T14:23:59;30.30;64.30
13310;DHT22;6723;48.256;16.402;2023-07-20T14:26:25;30.50;64.30
13310;DHT22;6723;48.256;16.402;2023-07-20T14:28:50;30.40;64.00
13310;DHT22;6723;48.256;16.402;2023-07-20T14:31:16;30.20;64.40
13310;DHT22;6723;48.256;16.402;2023-07-20T14:33:42;30.30;64.70
13310;DHT22;6723;48.256;16.402;2023-07-20T14:36:08;30.40;64.60
13310;DHT22;6723;48.256;16.402;2023-07-20T14:38:34;30.90;64.90
13310;DHT22;6723;48.256;16.402;2023-07-20T14:41:01;30.90;64.00
13310;DHT22;6723;48.256;16.402;2023-07-20T14:43:27;30.70;62.90
13310;DHT22;6723;48.256;16.402;2023-07-20T14:45:53;30.50;64.40
13310;DHT22;6723;48.256;16.402;2023-07-20T14:48:20;30.30;64.00
13310;DHT22;6723;48.256;16.402;2023-07-20T14:50:46;30.30;64.70
13310;DHT22;6723;48.256;16.402;2023-07-20T14:53:15;30.10;64.70
13310;DHT22;6723;48.256;16.402;2023-07-20T14:55:42;30.20;65.20
13310;DHT22;6723;48.256;16.402;2023-07-20T14:58:08;30.30;64.30
13310;DHT22;6723;48.256;16.402;2023-07-20T15:00:34;30.20;64.40
13310;DHT22;6723;48.256;16.402;2023-07-20T15:03:00;30.50;64.80
13310;DHT22;6723;48.256;16.402;2023-07-20T15:05:26;30.20;64.70
13310;DHT22;6723;48.256;16.402;2023-07-20T15:07:52;30.40;64.90
13310;DHT22;6723;48.256;16.402;2023-07-20T15:10:19;30.00;62.70
13310;DHT22;6723;48.256;16.402;2023-07-20T15:12:45;29.70;62.50
13310;DHT22;6723;48.256;16.402;2023-07-20T15:15:12;29.60;63.80
13310;DHT22;6723;48.256;16.402;2023-07-20T15:17:39;29.60;63.00
13310;DHT22;6723;48.256;16.402;2023-07-20T15:20:09;29.70;64.40
13310;DHT22;6723;48.256;16.402;2023-07-20T15:22:35;29.80;64.50
13310;DHT22;6723;48.256;16.402;2023-07-20T15:25:05;29.70;64.20
13310;DHT22;6723;48.256;16.402;2023-07-20T15:27:32;29.70;64.70
13310;DHT22;6723;48.256;16.402;2023-07-20T15:29:59;29.70;64.40
13310;DHT22;6723;48.256;16.402;2023-07-20T15:32:25;29.80;64.00
13310;DHT22;6723;48.256;16.402;2023-07-20T15:34:51;30.20;64.40
13310;DHT22;6723;48.256;16.402;2023-07-20T15:37:17;30.40;64.00
13310;DHT22;6723;48.256;16.402;2023-07-20T15:39:43;30.40;62.30
13310;DHT22;6723;48.256;16.402;2023-07-20T15:42:09;30.50;63.60
13310;DHT22;6723;48.256;16.402;2023-07-20T15:44:35;30.50;63.00
13310;DHT22;6723;48.256;16.402;2023-07-20T15:47:01;30.30;62.10
13310;DHT22;6723;48.256;16.402;2023-07-20T15:49:28;30.70;62.50
13310;DHT22;6723;48.256;16.402;2023-07-20T15:51:54;30.70;60.70